sensor_id;sensor_type;location;lat;lon;timestamp;P1;durP1;ratioP1;P2;durP2;ratioP2
16346;SDS011;8283;48.504;13.734;2023-10-19T00:00:33;8.00;;;6.32;;
16346;SDS011;8283;48.504;13.734;2023-10-19T00:02:53;7.50;;;5.97;;
16346;SDS011;8283;48.504;13.734;2023-10-19T00:05:13;9.00;;;6.28;;
16346;SDS011;8283;48.504;13.734;2023-10-19T00:07:35;7.32;;;6.18;;
16346;SDS011;8283;48.504;13.734;2023-10-19T00:09:55;8.73;;;5.75;;
16346;SDS011;8283;48.504;13.734;2023-10-19T00:12:14;8.93;;;6.03;;
16346;SDS011;8283;48.504;13.734;2023-10-19T00:14:34;7.90;;;5.97;;
16346;SDS011;8283;48.504;13.734;2023-10-19T00:16:54;8.02;;;6.20;;
16346;SDS011;8283;48.504;13.734;2023-10-19T00:19:18;6.78;;;6.05;;
16346;SDS011;8283;48.504;13.734;2023-10-19T00:21:38;7.45;;;5.70;;
16346;SDS011;8283;48.504;13.734;2023-10-19T00:24:13;7.65;;;6.38;;
16346;SDS011;8283;48.504;13.734;2023-10-19T00:26:35;8.27;;;6.15;;
16346;SDS011;8283;48.504;13.734;2023-10-19T00:28:55;9.05;;;6.18;;
16346;SDS011;8283;48.504;13.734;2023-10-19T00:31:15;7.88;;;6.35;;
16346;SDS011;8283;48.504;13.734;2023-10-19T00:33:35;9.40;;;6.50;;
16346;SDS011;8283;48.504;13.734;2023-10-19T00:35:59;7.95;;;6.40;;
16346;SDS011;8283;48.504;13.734;2023-10-19T00:38:29;7.30;;;5.80;;
16346;SDS011;8283;48.504;13.734;2023-10-19T00:41:09;7.35;;;6.00;;
16346;SDS011;8283;48.504;13.734;2023-10-19T00:43:29;7.05;;;5.82;;
16346;SDS011;8283;48.504;13.734;2023-10-19T00:45:52;8.90;;;6.40;;
16346;SDS011;8283;48.504;13.734;2023-10-19T00:48:11;6.68;;;5.95;;
16346;SDS011;8283;48.504;13.734;2023-10-19T00:50:30;7.55;;;6.10;;
16346;SDS011;8283;48.504;13.734;2023-10-19T00:52:51;7.72;;;6.82;;
16346;SDS011;8283;48.504;13.734;2023-10-19T00:55:12;7.70;;;5.97;;
16346;SDS011;8283;48.504;13.734;2023-10-19T00:57:33;7.68;;;6.40;;
16346;SDS011;8283;48.504;13.734;2023-10-19T00:59:55;9.40;;;6.93;;
16346;SDS011;8283;48.504;13.734;2023-10-19T01:02:26;9.43;;;6.75;;
16346;SDS011;8283;48.504;13.734;2023-10-19T01:04:46;8.32;;;6.75;;
16346;SDS011;8283;48.504;13.734;2023-10-19T01:07:15;7.50;;;6.22;;
16346;SDS011;8283;48.504;13.734;2023-10-19T01:09:40;8.35;;;6.32;;
16346;SDS011;8283;48.504;13.734;2023-10-19T01:12:02;7.35;;;6.18;;
16346;SDS011;8283;48.504;13.734;2023-10-19T01:14:42;8.18;;;6.32;;
16346;SDS011;8283;48.504;13.734;2023-10-19T01:17:02;8.68;;;6.28;;
16346;SDS011;8283;48.504;13.734;2023-10-19T01:19:22;9.60;;;7.22;;
16346;SDS011;8283;48.504;13.734;2023-10-19T01:21:42;7.45;;;6.13;;
16346;SDS011;8283;48.504;13.734;2023-10-19T01:24:07;7.40;;;6.15;;
16346;SDS011;8283;48.504;13.734;2023-10-19T01:26:27;9.48;;;6.60;;
16346;SDS011;8283;48.504;13.734;2023-10-19T01:28:47;8.52;;;6.63;;
16346;SDS011;8283;48.504;13.734;2023-10-19T01:33:34;8.95;;;6.95;;
16346;SDS011;8283;48.504;13.734;2023-10-19T01:35:53;8.90;;;6.93;;
16346;SDS011;8283;48.504;13.734;2023-10-19T01:38:32;8.55;;;7.10;;
16346;SDS011;8283;48.504;13.734;2023-10-19T01:40:52;7.87;;;7.07;;
16346;SDS011;8283;48.504;13.734;2023-10-19T01:45:39;7.55;;;6.20;;
16346;SDS011;8283;48.504;13.734;2023-10-19T01:47:59;7.18;;;6.13;;
16346;SDS011;8283;48.504;13.734;2023-10-19T01:50:19;8.38;;;6.65;;
16346;SDS011;8283;48.504;13.734;2023-10-19T01:52:39;9.73;;;7.82;;
16346;SDS011;8283;48.504;13.734;2023-10-19T01:54:58;9.93;;;7.07;;
16346;SDS011;8283;48.504;13.734;2023-10-19T01:57:26;8.82;;;7.32;;
16346;SDS011;8283;48.504;13.734;2023-10-19T01:59:45;8.18;;;6.80;;
16346;SDS011;8283;48.504;13.734;2023-10-19T02:02:05;8.82;;;7.15;;
16346;SDS011;8283;48.504;13.734;2023-10-19T02:04:28;8.35;;;6.90;;
16346;SDS011;8283;48.504;13.734;2023-10-19T02:06:47;8.68;;;6.57;;
16346;SDS011;8283;48.504;13.734;2023-10-19T02:09:10;10.48;;;7.78;;
16346;SDS011;8283;48.504;13.734;2023-10-19T02:11:50;9.32;;;7.68;;
16346;SDS011;8283;48.504;13.734;2023-10-19T02:14:15;9.20;;;7.50;;
16346;SDS011;8283;48.504;13.734;2023-10-19T02:16:35;9.88;;;6.85;;
16346;SDS011;8283;48.504;13.734;2023-10-19T02:18:56;8.88;;;6.78;;
16346;SDS011;8283;48.504;13.734;2023-10-19T02:21:15;8.65;;;6.47;;
16346;SDS011;8283;48.504;13.734;2023-10-19T02:23:40;9.25;;;7.22;;
16346;SDS011;8283;48.504;13.734;2023-10-19T02:26:03;8.77;;;7.15;;
16346;SDS011;8283;48.504;13.734;2023-10-19T02:28:23;10.65;;;7.63;;
16346;SDS011;8283;48.504;13.734;2023-10-19T02:30:49;7.53;;;6.03;;
16346;SDS011;8283;48.504;13.734;2023-10-19T02:33:09;8.60;;;6.97;;
16346;SDS011;8283;48.504;13.734;2023-10-19T02:37:49;8.68;;;6.72;;
16346;SDS011;8283;48.504;13.734;2023-10-19T02:40:10;9.18;;;7.13;;
16346;SDS011;8283;48.504;13.734;2023-10-19T02:42:40;8.75;;;7.38;;
16346;SDS011;8283;48.504;13.734;2023-10-19T02:44:59;7.82;;;6.57;;
16346;SDS011;8283;48.504;13.734;2023-10-19T02:47:18;10.25;;;7.32;;
16346;SDS011;8283;48.504;13.734;2023-10-19T02:49:38;8.68;;;6.57;;
16346;SDS011;8283;48.504;13.734;2023-10-19T02:51:58;9.60;;;7.43;;
16346;SDS011;8283;48.504;13.734;2023-10-19T02:54:23;8.57;;;6.85;;
16346;SDS011;8283;48.504;13.734;2023-10-19T02:56:43;9.95;;;7.68;;
16346;SDS011;8283;48.504;13.734;2023-10-19T02:59:09;9.30;;;7.05;;
16346;SDS011;8283;48.504;13.734;2023-10-19T03:01:28;8.77;;;7.05;;
16346;SDS011;8283;48.504;13.734;2023-10-19T03:03:51;11.45;;;7.72;;
16346;SDS011;8283;48.504;13.734;2023-10-19T03:06:19;8.90;;;6.57;;
16346;SDS011;8283;48.504;13.734;2023-10-19T03:10:59;8.57;;;6.65;;
16346;SDS011;8283;48.504;13.734;2023-10-19T03:13:26;7.55;;;6.45;;
16346;SDS011;8283;48.504;13.734;2023-10-19T03:15:46;9.18;;;6.85;;
16346;SDS011;8283;48.504;13.734;2023-10-19T03:18:07;8.82;;;7.53;;
16346;SDS011;8283;48.504;13.734;2023-10-19T03:20:27;8.88;;;6.50;;
16346;SDS011;8283;48.504;13.734;2023-10-19T03:22:52;8.50;;;6.85;;
16346;SDS011;8283;48.504;13.734;2023-10-19T03:25:12;8.02;;;7.18;;
16346;SDS011;8283;48.504;13.734;2023-10-19T03:28:01;9.25;;;6.75;;
16346;SDS011;8283;48.504;13.734;2023-10-19T03:30:33;8.18;;;6.78;;
16346;SDS011;8283;48.504;13.734;2023-10-19T03:32:57;8.40;;;7.10;;
16346;SDS011;8283;48.504;13.734;2023-10-19T03:37:39;8.95;;;6.47;;
16346;SDS011;8283;48.504;13.734;2023-10-19T03:40:00;8.45;;;7.13;;
16346;SDS011;8283;48.504;13.734;2023-10-19T03:42:26;11.48;;;7.25;;
16346;SDS011;8283;48.504;13.734;2023-10-19T03:44:50;11.23;;;7.38;;
16346;SDS011;8283;48.504;13.734;2023-10-19T03:47:12;8.52;;;6.70;;
16346;SDS011;8283;48.504;13.734;2023-10-19T03:49:37;9.40;;;6.95;;
16346;SDS011;8283;48.504;13.734;2023-10-19T03:54:18;8.68;;;7.25;;
16346;SDS011;8283;48.504;13.734;2023-10-19T03:56:40;7.63;;;6.32;;
16346;SDS011;8283;48.504;13.734;2023-10-19T03:59:00;10.20;;;6.78;;
16346;SDS011;8283;48.504;13.734;2023-10-19T04:01:19;9.75;;;6.88;;
16346;SDS011;8283;48.504;13.734;2023-10-19T04:03:40;9.18;;;7.38;;
16346;SDS011;8283;48.504;13.734;2023-10-19T04:05:59;9.80;;;6.72;;
16346;SDS011;8283;48.504;13.734;2023-10-19T04:08:20;8.52;;;6.70;;
16346;SDS011;8283;48.504;13.734;2023-10-19T04:10:41;9.73;;;7.75;;
16346;SDS011;8283;48.504;13.734;2023-10-19T04:13:03;12.85;;;8.15;;
16346;SDS011;8283;48.504;13.734;2023-10-19T04:15:22;9.70;;;7.82;;
16346;SDS011;8283;48.504;13.734;2023-10-19T04:17:44;10.02;;;7.70;;
16346;SDS011;8283;48.504;13.734;2023-10-19T04:20:05;9.50;;;7.55;;
16346;SDS011;8283;48.504;13.734;2023-10-19T04:22:49;9.02;;;6.82;;
16346;SDS011;8283;48.504;13.734;2023-10-19T04:25:09;8.27;;;7.13;;
16346;SDS011;8283;48.504;13.734;2023-10-19T04:27:31;9.20;;;7.22;;
16346;SDS011;8283;48.504;13.734;2023-10-19T04:29:54;9.05;;;7.00;;
16346;SDS011;8283;48.504;13.734;2023-10-19T04:32:13;9.82;;;7.50;;
16346;SDS011;8283;48.504;13.734;2023-10-19T04:34:33;11.05;;;8.43;;
16346;SDS011;8283;48.504;13.734;2023-10-19T04:36:54;8.95;;;7.13;;
16346;SDS011;8283;48.504;13.734;2023-10-19T04:39:16;10.52;;;7.70;;
16346;SDS011;8283;48.504;13.734;2023-10-19T04:41:38;9.45;;;7.40;;
16346;SDS011;8283;48.504;13.734;2023-10-19T04:43:58;11.70;;;8.40;;
16346;SDS011;8283;48.504;13.734;2023-10-19T04:46:19;10.23;;;7.80;;
16346;SDS011;8283;48.504;13.734;2023-10-19T04:48:39;9.82;;;8.07;;
16346;SDS011;8283;48.504;13.734;2023-10-19T04:50:58;11.32;;;7.35;;
16346;SDS011;8283;48.504;13.734;2023-10-19T04:53:18;9.43;;;7.82;;
16346;SDS011;8283;48.504;13.734;2023-10-19T04:55:37;9.55;;;7.53;;
16346;SDS011;8283;48.504;13.734;2023-10-19T04:57:56;8.90;;;7.63;;
16346;SDS011;8283;48.504;13.734;2023-10-19T05:00:17;9.65;;;7.53;;
16346;SDS011;8283;48.504;13.734;2023-10-19T05:02:39;9.68;;;7.85;;
16346;SDS011;8283;48.504;13.734;2023-10-19T05:04:58;9.32;;;8.07;;
16346;SDS011;8283;48.504;13.734;2023-10-19T05:07:18;10.65;;;7.43;;
16346;SDS011;8283;48.504;13.734;2023-10-19T05:09:37;9.52;;;6.97;;
16346;SDS011;8283;48.504;13.734;2023-10-19T05:12:00;12.02;;;7.82;;
16346;SDS011;8283;48.504;13.734;2023-10-19T05:14:20;11.20;;;7.88;;
16346;SDS011;8283;48.504;13.734;2023-10-19T05:16:39;9.15;;;7.63;;
16346;SDS011;8283;48.504;13.734;2023-10-19T05:18:59;9.77;;;7.93;;
16346;SDS011;8283;48.504;13.734;2023-10-19T05:21:18;13.23;;;7.75;;
16346;SDS011;8283;48.504;13.734;2023-10-19T05:23:38;9.35;;;7.70;;
16346;SDS011;8283;48.504;13.734;2023-10-19T05:26:01;11.13;;;8.65;;
16346;SDS011;8283;48.504;13.734;2023-10-19T05:28:25;9.70;;;7.45;;
16346;SDS011;8283;48.504;13.734;2023-10-19T05:30:45;10.30;;;7.80;;
16346;SDS011;8283;48.504;13.734;2023-10-19T05:33:05;9.75;;;7.57;;
16346;SDS011;8283;48.504;13.734;2023-10-19T05:35:25;10.77;;;7.45;;
16346;SDS011;8283;48.504;13.734;2023-10-19T05:37:45;12.38;;;8.10;;
16346;SDS011;8283;48.504;13.734;2023-10-19T05:40:04;10.93;;;7.75;;
16346;SDS011;8283;48.504;13.734;2023-10-19T05:42:31;10.32;;;7.97;;
16346;SDS011;8283;48.504;13.734;2023-10-19T05:44:53;11.25;;;8.55;;
16346;SDS011;8283;48.504;13.734;2023-10-19T05:47:12;10.88;;;8.77;;
16346;SDS011;8283;48.504;13.734;2023-10-19T05:49:32;11.57;;;8.75;;
16346;SDS011;8283;48.504;13.734;2023-10-19T05:51:52;9.63;;;8.40;;
16346;SDS011;8283;48.504;13.734;2023-10-19T05:54:12;9.93;;;7.90;;
16346;SDS011;8283;48.504;13.734;2023-10-19T05:56:31;10.80;;;7.97;;
16346;SDS011;8283;48.504;13.734;2023-10-19T05:58:53;11.20;;;7.97;;
16346;SDS011;8283;48.504;13.734;2023-10-19T06:01:12;10.45;;;8.25;;
16346;SDS011;8283;48.504;13.734;2023-10-19T06:03:32;9.70;;;8.30;;
16346;SDS011;8283;48.504;13.734;2023-10-19T06:05:51;12.20;;;7.90;;
16346;SDS011;8283;48.504;13.734;2023-10-19T06:08:15;10.93;;;8.13;;
16346;SDS011;8283;48.504;13.734;2023-10-19T06:10:34;10.85;;;8.05;;
16346;SDS011;8283;48.504;13.734;2023-10-19T06:12:53;9.60;;;8.07;;
16346;SDS011;8283;48.504;13.734;2023-10-19T06:15:14;11.57;;;7.90;;
16346;SDS011;8283;48.504;13.734;2023-10-19T06:17:34;10.50;;;8.68;;
16346;SDS011;8283;48.504;13.734;2023-10-19T06:19:53;9.98;;;7.45;;
16346;SDS011;8283;48.504;13.734;2023-10-19T06:22:13;11.32;;;8.52;;
16346;SDS011;8283;48.504;13.734;2023-10-19T06:26:53;11.73;;;7.63;;
16346;SDS011;8283;48.504;13.734;2023-10-19T06:29:12;11.10;;;8.07;;
16346;SDS011;8283;48.504;13.734;2023-10-19T06:31:31;10.07;;;8.02;;
16346;SDS011;8283;48.504;13.734;2023-10-19T06:33:51;14.15;;;8.80;;
16346;SDS011;8283;48.504;13.734;2023-10-19T06:36:10;10.30;;;8.27;;
16346;SDS011;8283;48.504;13.734;2023-10-19T06:38:30;10.40;;;7.80;;
16346;SDS011;8283;48.504;13.734;2023-10-19T06:40:50;10.50;;;8.38;;
16346;SDS011;8283;48.504;13.734;2023-10-19T06:43:10;11.05;;;8.95;;
16346;SDS011;8283;48.504;13.734;2023-10-19T06:45:30;12.88;;;8.55;;
16346;SDS011;8283;48.504;13.734;2023-10-19T06:47:50;14.20;;;8.63;;
16346;SDS011;8283;48.504;13.734;2023-10-19T06:50:11;11.20;;;8.77;;
16346;SDS011;8283;48.504;13.734;2023-10-19T06:52:32;13.57;;;8.30;;
16346;SDS011;8283;48.504;13.734;2023-10-19T06:54:52;11.77;;;9.23;;
16346;SDS011;8283;48.504;13.734;2023-10-19T06:57:11;12.07;;;9.15;;
16346;SDS011;8283;48.504;13.734;2023-10-19T06:59:31;12.13;;;8.88;;
16346;SDS011;8283;48.504;13.734;2023-10-19T07:01:51;11.25;;;8.98;;
16346;SDS011;8283;48.504;13.734;2023-10-19T07:04:11;12.02;;;8.85;;
16346;SDS011;8283;48.504;13.734;2023-10-19T07:06:30;11.38;;;8.90;;
16346;SDS011;8283;48.504;13.734;2023-10-19T07:08:49;11.20;;;8.70;;
16346;SDS011;8283;48.504;13.734;2023-10-19T07:11:09;13.32;;;9.20;;
16346;SDS011;8283;48.504;13.734;2023-10-19T07:13:29;10.90;;;8.55;;
16346;SDS011;8283;48.504;13.734;2023-10-19T07:15:51;12.10;;;9.70;;
16346;SDS011;8283;48.504;13.734;2023-10-19T07:18:10;10.35;;;8.02;;
16346;SDS011;8283;48.504;13.734;2023-10-19T07:20:30;11.75;;;8.55;;
16346;SDS011;8283;48.504;13.734;2023-10-19T07:22:55;12.10;;;9.20;;
16346;SDS011;8283;48.504;13.734;2023-10-19T07:25:15;12.68;;;9.43;;
16346;SDS011;8283;48.504;13.734;2023-10-19T07:27:39;11.57;;;9.30;;
16346;SDS011;8283;48.504;13.734;2023-10-19T07:30:01;13.27;;;9.32;;
16346;SDS011;8283;48.504;13.734;2023-10-19T07:32:25;12.20;;;9.50;;
16346;SDS011;8283;48.504;13.734;2023-10-19T07:34:44;10.23;;;8.57;;
16346;SDS011;8283;48.504;13.734;2023-10-19T07:37:04;14.38;;;9.70;;
16346;SDS011;8283;48.504;13.734;2023-10-19T07:39:23;15.18;;;9.25;;
16346;SDS011;8283;48.504;13.734;2023-10-19T07:41:42;11.88;;;9.10;;
16346;SDS011;8283;48.504;13.734;2023-10-19T07:44:01;11.95;;;9.68;;
16346;SDS011;8283;48.504;13.734;2023-10-19T07:46:21;12.10;;;9.35;;
16346;SDS011;8283;48.504;13.734;2023-10-19T07:48:40;11.40;;;9.15;;
16346;SDS011;8283;48.504;13.734;2023-10-19T07:51:00;11.75;;;9.15;;
16346;SDS011;8283;48.504;13.734;2023-10-19T07:53:20;10.18;;;8.85;;
16346;SDS011;8283;48.504;13.734;2023-10-19T07:55:40;13.10;;;9.30;;
16346;SDS011;8283;48.504;13.734;2023-10-19T07:58:01;14.15;;;9.82;;
16346;SDS011;8283;48.504;13.734;2023-10-19T08:00:24;12.80;;;9.82;;
16346;SDS011;8283;48.504;13.734;2023-10-19T08:02:44;11.02;;;9.30;;
16346;SDS011;8283;48.504;13.734;2023-10-19T08:05:07;11.70;;;9.30;;
16346;SDS011;8283;48.504;13.734;2023-10-19T08:07:30;12.35;;;9.85;;
16346;SDS011;8283;48.504;13.734;2023-10-19T08:09:49;13.32;;;9.07;;
16346;SDS011;8283;48.504;13.734;2023-10-19T08:12:09;11.45;;;9.30;;
16346;SDS011;8283;48.504;13.734;2023-10-19T08:14:28;12.18;;;9.73;;
16346;SDS011;8283;48.504;13.734;2023-10-19T08:16:49;12.75;;;9.73;;
16346;SDS011;8283;48.504;13.734;2023-10-19T08:19:08;12.00;;;9.45;;
16346;SDS011;8283;48.504;13.734;2023-10-19T08:21:27;15.07;;;9.80;;
16346;SDS011;8283;48.504;13.734;2023-10-19T08:23:47;10.55;;;8.68;;
16346;SDS011;8283;48.504;13.734;2023-10-19T08:26:06;14.73;;;10.40;;
16346;SDS011;8283;48.504;13.734;2023-10-19T08:28:26;12.63;;;10.85;;
16346;SDS011;8283;48.504;13.734;2023-10-19T08:30:46;12.63;;;9.77;;
16346;SDS011;8283;48.504;13.734;2023-10-19T08:33:15;11.52;;;9.32;;
16346;SDS011;8283;48.504;13.734;2023-10-19T08:35:35;13.48;;;9.55;;
16346;SDS011;8283;48.504;13.734;2023-10-19T08:37:54;12.30;;;9.65;;
16346;SDS011;8283;48.504;13.734;2023-10-19T08:40:16;11.73;;;10.38;;
16346;SDS011;8283;48.504;13.734;2023-10-19T08:42:36;13.27;;;10.57;;
16346;SDS011;8283;48.504;13.734;2023-10-19T08:44:55;11.95;;;9.30;;
16346;SDS011;8283;48.504;13.734;2023-10-19T08:47:15;12.02;;;8.98;;
16346;SDS011;8283;48.504;13.734;2023-10-19T08:49:35;12.00;;;9.98;;
16346;SDS011;8283;48.504;13.734;2023-10-19T08:51:55;14.95;;;10.80;;
16346;SDS011;8283;48.504;13.734;2023-10-19T08:54:19;14.02;;;10.68;;
16346;SDS011;8283;48.504;13.734;2023-10-19T08:56:38;12.93;;;10.02;;
16346;SDS011;8283;48.504;13.734;2023-10-19T08:59:01;12.75;;;9.73;;
16346;SDS011;8283;48.504;13.734;2023-10-19T09:01:20;11.77;;;9.32;;
16346;SDS011;8283;48.504;13.734;2023-10-19T09:03:42;11.18;;;10.05;;
16346;SDS011;8283;48.504;13.734;2023-10-19T09:06:03;13.73;;;10.50;;
16346;SDS011;8283;48.504;13.734;2023-10-19T09:08:24;13.13;;;9.18;;
16346;SDS011;8283;48.504;13.734;2023-10-19T09:10:44;14.45;;;10.20;;
16346;SDS011;8283;48.504;13.734;2023-10-19T09:13:05;12.23;;;10.45;;
16346;SDS011;8283;48.504;13.734;2023-10-19T09:15:28;12.38;;;10.05;;
16346;SDS011;8283;48.504;13.734;2023-10-19T09:17:51;14.43;;;9.45;;
16346;SDS011;8283;48.504;13.734;2023-10-19T09:20:13;13.07;;;10.02;;
16346;SDS011;8283;48.504;13.734;2023-10-19T09:22:36;12.77;;;10.13;;
16346;SDS011;8283;48.504;13.734;2023-10-19T09:24:55;14.07;;;10.02;;
16346;SDS011;8283;48.504;13.734;2023-10-19T09:27:18;11.85;;;9.82;;
16346;SDS011;8283;48.504;13.734;2023-10-19T09:29:39;11.52;;;9.45;;
16346;SDS011;8283;48.504;13.734;2023-10-19T09:31:59;10.52;;;8.50;;
16346;SDS011;8283;48.504;13.734;2023-10-19T09:34:23;11.38;;;9.10;;
16346;SDS011;8283;48.504;13.734;2023-10-19T09:36:50;11.50;;;8.93;;
16346;SDS011;8283;48.504;13.734;2023-10-19T09:39:12;10.73;;;9.07;;
16346;SDS011;8283;48.504;13.734;2023-10-19T09:41:31;10.00;;;8.93;;
16346;SDS011;8283;48.504;13.734;2023-10-19T09:43:51;13.35;;;10.00;;
16346;SDS011;8283;48.504;13.734;2023-10-19T09:46:20;13.18;;;9.30;;
16346;SDS011;8283;48.504;13.734;2023-10-19T09:48:42;12.20;;;9.95;;
16346;SDS011;8283;48.504;13.734;2023-10-19T09:51:04;10.05;;;8.48;;
16346;SDS011;8283;48.504;13.734;2023-10-19T09:53:27;10.68;;;8.70;;
16346;SDS011;8283;48.504;13.734;2023-10-19T09:55:48;12.32;;;9.25;;
16346;SDS011;8283;48.504;13.734;2023-10-19T09:58:14;10.90;;;8.75;;
16346;SDS011;8283;48.504;13.734;2023-10-19T10:00:36;10.93;;;9.02;;
16346;SDS011;8283;48.504;13.734;2023-10-19T10:02:56;10.68;;;8.85;;
16346;SDS011;8283;48.504;13.734;2023-10-19T10:10:39;11.63;;;9.07;;
16346;SDS011;8283;48.504;13.734;2023-10-19T10:13:26;9.30;;;8.00;;
16346;SDS011;8283;48.504;13.734;2023-10-19T10:15:49;10.25;;;8.20;;
16346;SDS011;8283;48.504;13.734;2023-10-19T10:18:13;10.07;;;8.25;;
16346;SDS011;8283;48.504;13.734;2023-10-19T10:25:50;10.77;;;8.70;;
16346;SDS011;8283;48.504;13.734;2023-10-19T10:28:12;10.75;;;8.55;;
16346;SDS011;8283;48.504;13.734;2023-10-19T10:32:53;8.63;;;7.05;;
16346;SDS011;8283;48.504;13.734;2023-10-19T10:37:55;8.55;;;7.65;;
16346;SDS011;8283;48.504;13.734;2023-10-19T10:40:15;9.07;;;7.93;;
16346;SDS011;8283;48.504;13.734;2023-10-19T10:42:34;8.60;;;7.70;;
16346;SDS011;8283;48.504;13.734;2023-10-19T10:44:54;9.43;;;7.43;;
16346;SDS011;8283;48.504;13.734;2023-10-19T10:47:17;9.20;;;7.80;;
16346;SDS011;8283;48.504;13.734;2023-10-19T10:49:56;8.02;;;7.22;;
16346;SDS011;8283;48.504;13.734;2023-10-19T10:52:29;8.38;;;7.38;;
16346;SDS011;8283;48.504;13.734;2023-10-19T10:54:50;9.90;;;8.40;;
16346;SDS011;8283;48.504;13.734;2023-10-19T10:57:09;10.30;;;7.60;;
16346;SDS011;8283;48.504;13.734;2023-10-19T10:59:28;8.65;;;7.63;;
16346;SDS011;8283;48.504;13.734;2023-10-19T11:01:48;9.10;;;8.20;;
16346;SDS011;8283;48.504;13.734;2023-10-19T11:04:08;10.15;;;7.25;;
16346;SDS011;8283;48.504;13.734;2023-10-19T11:06:29;9.55;;;7.38;;
16346;SDS011;8283;48.504;13.734;2023-10-19T11:08:48;8.35;;;7.43;;
16346;SDS011;8283;48.504;13.734;2023-10-19T11:11:08;8.50;;;7.22;;
16346;SDS011;8283;48.504;13.734;2023-10-19T11:13:31;7.50;;;6.75;;
16346;SDS011;8283;48.504;13.734;2023-10-19T11:15:54;9.50;;;7.63;;
16346;SDS011;8283;48.504;13.734;2023-10-19T11:20:58;8.48;;;7.10;;
16346;SDS011;8283;48.504;13.734;2023-10-19T11:23:19;8.05;;;6.93;;
16346;SDS011;8283;48.504;13.734;2023-10-19T11:25:38;7.40;;;6.68;;
16346;SDS011;8283;48.504;13.734;2023-10-19T11:27:58;7.75;;;6.95;;
16346;SDS011;8283;48.504;13.734;2023-10-19T11:30:28;9.40;;;7.20;;
16346;SDS011;8283;48.504;13.734;2023-10-19T11:32:48;6.55;;;5.95;;
16346;SDS011;8283;48.504;13.734;2023-10-19T11:35:11;8.80;;;7.25;;
16346;SDS011;8283;48.504;13.734;2023-10-19T11:37:44;8.98;;;7.57;;
16346;SDS011;8283;48.504;13.734;2023-10-19T11:40:15;8.10;;;7.05;;
16346;SDS011;8283;48.504;13.734;2023-10-19T11:42:36;10.07;;;7.03;;
16346;SDS011;8283;48.504;13.734;2023-10-19T11:44:55;7.03;;;6.32;;
16346;SDS011;8283;48.504;13.734;2023-10-19T11:47:15;7.35;;;6.63;;
16346;SDS011;8283;48.504;13.734;2023-10-19T11:49:34;7.10;;;6.40;;
16346;SDS011;8283;48.504;13.734;2023-10-19T11:51:53;7.43;;;6.60;;
16346;SDS011;8283;48.504;13.734;2023-10-19T11:54:13;7.28;;;6.57;;
16346;SDS011;8283;48.504;13.734;2023-10-19T11:56:32;6.72;;;6.03;;
16346;SDS011;8283;48.504;13.734;2023-10-19T11:58:53;8.77;;;7.45;;
16346;SDS011;8283;48.504;13.734;2023-10-19T12:01:12;8.75;;;7.30;;
16346;SDS011;8283;48.504;13.734;2023-10-19T12:03:31;8.70;;;7.30;;
16346;SDS011;8283;48.504;13.734;2023-10-19T12:05:54;8.02;;;6.75;;
16346;SDS011;8283;48.504;13.734;2023-10-19T12:08:14;8.20;;;7.30;;
16346;SDS011;8283;48.504;13.734;2023-10-19T12:10:33;7.57;;;6.63;;
16346;SDS011;8283;48.504;13.734;2023-10-19T12:12:56;8.32;;;7.10;;
16346;SDS011;8283;48.504;13.734;2023-10-19T12:15:15;8.63;;;7.18;;
16346;SDS011;8283;48.504;13.734;2023-10-19T12:17:35;8.90;;;7.28;;
16346;SDS011;8283;48.504;13.734;2023-10-19T12:19:55;9.23;;;7.60;;
16346;SDS011;8283;48.504;13.734;2023-10-19T12:22:14;7.72;;;6.50;;
16346;SDS011;8283;48.504;13.734;2023-10-19T12:24:35;8.32;;;7.45;;
16346;SDS011;8283;48.504;13.734;2023-10-19T12:26:54;8.32;;;7.45;;
16346;SDS011;8283;48.504;13.734;2023-10-19T12:29:15;8.52;;;6.70;;
16346;SDS011;8283;48.504;13.734;2023-10-19T12:31:35;8.00;;;7.20;;
16346;SDS011;8283;48.504;13.734;2023-10-19T12:33:58;7.43;;;6.68;;
16346;SDS011;8283;48.504;13.734;2023-10-19T12:36:17;9.23;;;7.35;;
16346;SDS011;8283;48.504;13.734;2023-10-19T12:38:50;8.30;;;7.05;;
16346;SDS011;8283;48.504;13.734;2023-10-19T12:41:10;9.07;;;7.20;;
16346;SDS011;8283;48.504;13.734;2023-10-19T12:43:29;8.23;;;6.63;;
16346;SDS011;8283;48.504;13.734;2023-10-19T12:45:48;10.13;;;8.57;;
16346;SDS011;8283;48.504;13.734;2023-10-19T12:48:17;8.63;;;7.07;;
16346;SDS011;8283;48.504;13.734;2023-10-19T12:50:36;9.00;;;8.02;;
16346;SDS011;8283;48.504;13.734;2023-10-19T12:52:57;7.97;;;7.15;;
16346;SDS011;8283;48.504;13.734;2023-10-19T12:55:17;7.95;;;7.15;;
16346;SDS011;8283;48.504;13.734;2023-10-19T12:57:37;8.60;;;6.70;;
16346;SDS011;8283;48.504;13.734;2023-10-19T12:59:57;7.72;;;6.75;;
16346;SDS011;8283;48.504;13.734;2023-10-19T13:02:16;8.95;;;7.63;;
16346;SDS011;8283;48.504;13.734;2023-10-19T13:04:35;7.43;;;6.28;;
16346;SDS011;8283;48.504;13.734;2023-10-19T13:06:55;7.20;;;6.43;;
16346;SDS011;8283;48.504;13.734;2023-10-19T13:09:16;7.72;;;6.63;;
16346;SDS011;8283;48.504;13.734;2023-10-19T13:11:40;9.30;;;6.93;;
16346;SDS011;8283;48.504;13.734;2023-10-19T13:14:02;7.50;;;6.63;;
16346;SDS011;8283;48.504;13.734;2023-10-19T13:16:25;7.88;;;6.20;;
16346;SDS011;8283;48.504;13.734;2023-10-19T13:18:44;10.65;;;7.85;;
16346;SDS011;8283;48.504;13.734;2023-10-19T13:21:05;9.25;;;7.13;;
16346;SDS011;8283;48.504;13.734;2023-10-19T13:23:24;12.57;;;8.98;;
16346;SDS011;8283;48.504;13.734;2023-10-19T13:25:43;8.18;;;7.13;;
16346;SDS011;8283;48.504;13.734;2023-10-19T13:28:09;6.70;;;5.93;;
16346;SDS011;8283;48.504;13.734;2023-10-19T13:30:28;10.87;;;6.10;;
16346;SDS011;8283;48.504;13.734;2023-10-19T13:32:47;8.02;;;5.43;;
16346;SDS011;8283;48.504;13.734;2023-10-19T13:35:07;6.03;;;5.43;;
16346;SDS011;8283;48.504;13.734;2023-10-19T13:37:28;6.53;;;5.25;;
16346;SDS011;8283;48.504;13.734;2023-10-19T13:39:47;5.07;;;4.40;;
16346;SDS011;8283;48.504;13.734;2023-10-19T13:42:06;5.88;;;5.13;;
16346;SDS011;8283;48.504;13.734;2023-10-19T13:44:27;5.40;;;4.90;;
16346;SDS011;8283;48.504;13.734;2023-10-19T13:46:47;4.68;;;4.28;;
16346;SDS011;8283;48.504;13.734;2023-10-19T13:49:06;7.10;;;4.95;;
16346;SDS011;8283;48.504;13.734;2023-10-19T13:51:28;5.57;;;4.63;;
16346;SDS011;8283;48.504;13.734;2023-10-19T13:53:47;7.10;;;5.55;;
16346;SDS011;8283;48.504;13.734;2023-10-19T13:58:28;4.45;;;4.03;;
16346;SDS011;8283;48.504;13.734;2023-10-19T14:00:48;5.32;;;4.82;;
16346;SDS011;8283;48.504;13.734;2023-10-19T14:03:07;6.00;;;5.30;;
16346;SDS011;8283;48.504;13.734;2023-10-19T14:05:28;6.22;;;5.07;;
16346;SDS011;8283;48.504;13.734;2023-10-19T14:07:48;5.90;;;5.07;;
16346;SDS011;8283;48.504;13.734;2023-10-19T14:10:08;5.18;;;4.60;;
16346;SDS011;8283;48.504;13.734;2023-10-19T14:12:31;5.75;;;4.60;;
16346;SDS011;8283;48.504;13.734;2023-10-19T14:14:50;5.82;;;5.10;;
16346;SDS011;8283;48.504;13.734;2023-10-19T14:17:09;5.95;;;5.00;;
16346;SDS011;8283;48.504;13.734;2023-10-19T14:19:29;12.18;;;4.93;;
16346;SDS011;8283;48.504;13.734;2023-10-19T14:21:48;6.05;;;4.57;;
16346;SDS011;8283;48.504;13.734;2023-10-19T14:24:07;5.35;;;4.85;;
16346;SDS011;8283;48.504;13.734;2023-10-19T14:26:27;6.22;;;5.40;;
16346;SDS011;8283;48.504;13.734;2023-10-19T14:28:46;5.78;;;4.85;;
16346;SDS011;8283;48.504;13.734;2023-10-19T14:31:06;6.43;;;5.00;;
16346;SDS011;8283;48.504;13.734;2023-10-19T14:33:26;5.97;;;5.05;;
16346;SDS011;8283;48.504;13.734;2023-10-19T14:35:45;6.75;;;5.50;;
16346;SDS011;8283;48.504;13.734;2023-10-19T14:38:05;6.37;;;5.60;;
16346;SDS011;8283;48.504;13.734;2023-10-19T14:40:28;6.63;;;5.07;;
16346;SDS011;8283;48.504;13.734;2023-10-19T14:42:47;6.72;;;5.15;;